Weather at Pulkovo Airport

Public forecast

Using degrees Celsius for public forecast. Weather courtesy of forecast.io.

Current aviation weather report (METAR) for Pulkovo Airport

Retrieved 2021/07/24 23:30 UTC (4 minutes ago):

ULLI 242330Z 24001MPS CAVOK 12/07 Q1017 R28L/090060 NOSIG

Aviation forecast (TAF) for Pulkovo Airport

Retrieved 2021/07/24 21:24 UTC (2 hours ago):

TAF TAF ULLI 241955Z 2421/2521 24003MPS 9999 SCT040 TEMPO 2421/2504 3000 BR BKN040 BECMG 2506/2508 28005MPS TEMPO 2508/2515 29005G10MPS BKN040